sensor_id;sensor_type;location;lat;lon;timestamp;pressure;altitude;pressure_sealevel;temperature;humidity
63819;BME280;49970;54.976;73.248;2023-03-25T00:02:23;100515.19;;;-1.39;93.05
63819;BME280;49970;54.976;73.248;2023-03-25T00:04:53;100515.22;;;-1.40;93.18
63819;BME280;49970;54.976;73.248;2023-03-25T00:07:20;100516.97;;;-1.42;93.18
63819;BME280;49970;54.976;73.248;2023-03-25T00:09:47;100518.72;;;-1.43;93.38
63819;BME280;49970;54.976;73.248;2023-03-25T00:12:14;100532.56;;;-1.41;93.26
63819;BME280;49970;54.976;73.248;2023-03-25T00:14:42;100531.69;;;-1.41;93.29
63819;BME280;49970;54.976;73.248;2023-03-25T00:17:08;100529.91;;;-1.39;93.37
63819;BME280;49970;54.976;73.248;2023-03-25T00:19:35;100524.75;;;-1.41;93.20
63819;BME280;49970;54.976;73.248;2023-03-25T00:22:02;100526.47;;;-1.40;92.92
63819;BME280;49970;54.976;73.248;2023-03-25T00:24:33;100525.66;;;-1.42;93.20
63819;BME280;49970;54.976;73.248;2023-03-25T00:26:59;100527.44;;;-1.45;92.99
63819;BME280;49970;54.976;73.248;2023-03-25T00:29:25;100529.25;;;-1.51;92.98
63819;BME280;49970;54.976;73.248;2023-03-25T00:31:56;100539.72;;;-1.55;92.78
63819;BME280;49970;54.976;73.248;2023-03-25T00:34:33;100532.00;;;-1.60;93.14
63819;BME280;49970;54.976;73.248;2023-03-25T00:37:00;100538.94;;;-1.60;92.96
63819;BME280;49970;54.976;73.248;2023-03-25T00:39:29;100538.13;;;-1.62;92.92
63819;BME280;49970;54.976;73.248;2023-03-25T00:42:06;100533.88;;;-1.66;93.17
63819;BME280;49970;54.976;73.248;2023-03-25T00:44:36;100537.38;;;-1.69;93.23
63819;BME280;49970;54.976;73.248;2023-03-25T00:47:02;100543.41;;;-1.67;93.36
63819;BME280;49970;54.976;73.248;2023-03-25T00:49:38;100541.63;;;-1.65;93.37
63819;BME280;49970;54.976;73.248;2023-03-25T00:52:04;100545.88;;;-1.61;93.35
63819;BME280;49970;54.976;73.248;2023-03-25T00:54:31;100546.69;;;-1.57;93.53
63819;BME280;49970;54.976;73.248;2023-03-25T00:56:59;100544.06;;;-1.56;93.46
63819;BME280;49970;54.976;73.248;2023-03-25T00:59:35;100542.31;;;-1.55;93.34
63819;BME280;49970;54.976;73.248;2023-03-25T01:02:02;100541.47;;;-1.56;93.14
63819;BME280;49970;54.976;73.248;2023-03-25T01:04:39;100532.81;;;-1.56;93.16
63819;BME280;49970;54.976;73.248;2023-03-25T01:07:05;100533.69;;;-1.56;93.27
63819;BME280;49970;54.976;73.248;2023-03-25T01:09:31;100542.31;;;-1.55;93.23
63819;BME280;49970;54.976;73.248;2023-03-25T01:11:57;100536.22;;;-1.53;93.34
63819;BME280;49970;54.976;73.248;2023-03-25T01:14:24;100537.06;;;-1.52;93.12
63819;BME280;49970;54.976;73.248;2023-03-25T01:16:52;100529.28;;;-1.52;93.02
63819;BME280;49970;54.976;73.248;2023-03-25T01:19:19;100528.44;;;-1.53;93.02
63819;BME280;49970;54.976;73.248;2023-03-25T01:21:45;100531.03;;;-1.53;93.22
63819;BME280;49970;54.976;73.248;2023-03-25T01:24:13;100532.72;;;-1.52;93.07
63819;BME280;49970;54.976;73.248;2023-03-25T01:26:50;100519.03;;;-1.60;93.08
63819;BME280;49970;54.976;73.248;2023-03-25T01:29:19;100540.59;;;-1.55;93.01
63819;BME280;49970;54.976;73.248;2023-03-25T01:31:46;100519.91;;;-1.61;93.09
63819;BME280;49970;54.976;73.248;2023-03-25T01:34:14;100533.69;;;-1.56;92.85
63819;BME280;49970;54.976;73.248;2023-03-25T01:36:40;100523.28;;;-1.56;92.89
63819;BME280;49970;54.976;73.248;2023-03-25T01:39:12;100523.25;;;-1.53;92.88
63819;BME280;49970;54.976;73.248;2023-03-25T01:41:42;100531.00;;;-1.51;93.07
63819;BME280;49970;54.976;73.248;2023-03-25T01:46:51;100526.63;;;-1.49;92.82
63819;BME280;49970;54.976;73.248;2023-03-25T01:49:27;100528.31;;;-1.46;93.11
63819;BME280;49970;54.976;73.248;2023-03-25T01:52:04;100528.28;;;-1.45;92.88
63819;BME280;49970;54.976;73.248;2023-03-25T01:54:38;100523.06;;;-1.43;92.60
63819;BME280;49970;54.976;73.248;2023-03-25T01:57:18;100518.75;;;-1.44;92.83
63819;BME280;49970;54.976;73.248;2023-03-25T01:59:45;100517.06;;;-1.45;92.96
63819;BME280;49970;54.976;73.248;2023-03-25T02:02:13;100519.56;;;-1.42;92.65
63819;BME280;49970;54.976;73.248;2023-03-25T02:07:26;100516.16;;;-1.44;92.41
63819;BME280;49970;54.976;73.248;2023-03-25T02:10:04;100511.88;;;-1.47;92.58
63819;BME280;49970;54.976;73.248;2023-03-25T02:12:35;100511.84;;;-1.45;92.77
63819;BME280;49970;54.976;73.248;2023-03-25T02:15:03;100504.88;;;-1.43;92.42
63819;BME280;49970;54.976;73.248;2023-03-25T02:29:10;100519.34;;;-1.30;92.44
63819;BME280;49970;54.976;73.248;2023-03-25T02:32:15;100521.03;;;-1.28;92.82
63819;BME280;49970;54.976;73.248;2023-03-25T02:40:47;100519.19;;;-1.22;92.45
63819;BME280;49970;54.976;73.248;2023-03-25T02:43:38;100526.06;;;-1.18;93.15
63819;BME280;49970;54.976;73.248;2023-03-25T02:46:09;100532.00;;;-1.13;93.00
63819;BME280;49970;54.976;73.248;2023-03-25T02:51:21;100531.78;;;-1.01;93.11
63819;BME280;49970;54.976;73.248;2023-03-25T02:53:54;100533.41;;;-0.97;93.07
63819;BME280;49970;54.976;73.248;2023-03-25T02:56:24;100535.06;;;-0.91;92.89
63819;BME280;49970;54.976;73.248;2023-03-25T02:58:58;100542.63;;;-0.81;93.48
63819;BME280;49970;54.976;73.248;2023-03-25T03:01:25;100538.88;;;-0.67;93.43
63819;BME280;49970;54.976;73.248;2023-03-25T03:03:54;100534.25;;;-0.53;93.17
63819;BME280;49970;54.976;73.248;2023-03-25T03:06:22;100543.38;;;-0.35;92.83
63819;BME280;49970;54.976;73.248;2023-03-25T03:09:16;100549.03;;;-0.18;92.68
63819;BME280;49970;54.976;73.248;2023-03-25T03:12:03;100547.00;;;-0.04;92.56
63819;BME280;49970;54.976;73.248;2023-03-25T03:17:24;100551.63;;;0.21;91.90
63819;BME280;49970;54.976;73.248;2023-03-25T03:19:59;100542.59;;;0.33;91.04
63819;BME280;49970;54.976;73.248;2023-03-25T03:22:39;100534.53;;;0.43;91.53
63819;BME280;49970;54.976;73.248;2023-03-25T03:28:16;100537.50;;;0.62;90.81
63819;BME280;49970;54.976;73.248;2023-03-25T03:40:43;100539.38;;;1.19;89.59
63819;BME280;49970;54.976;73.248;2023-03-25T03:43:19;100533.06;;;1.28;89.73
63819;BME280;49970;54.976;73.248;2023-03-25T03:45:49;100535.34;;;1.39;89.28
63819;BME280;49970;54.976;73.248;2023-03-25T03:48:37;100545.56;;;1.46;89.30
63819;BME280;49970;54.976;73.248;2023-03-25T03:51:13;100540.94;;;1.55;89.02
63819;BME280;49970;54.976;73.248;2023-03-25T03:53:51;100539.72;;;1.66;88.52
63819;BME280;49970;54.976;73.248;2023-03-25T03:56:24;100531.56;;;1.77;88.59
63819;BME280;49970;54.976;73.248;2023-03-25T03:59:06;100533.97;;;1.83;88.56
63819;BME280;49970;54.976;73.248;2023-03-25T04:01:47;100531.72;;;1.99;88.07
63819;BME280;49970;54.976;73.248;2023-03-25T04:04:21;100534.91;;;2.09;87.43
63819;BME280;49970;54.976;73.248;2023-03-25T04:10:57;100525.81;;;2.20;86.90
63819;BME280;49970;54.976;73.248;2023-03-25T04:13:35;100522.16;;;2.26;86.49
63819;BME280;49970;54.976;73.248;2023-03-25T04:16:04;100530.00;;;2.26;86.30
63819;BME280;49970;54.976;73.248;2023-03-25T04:18:33;100527.16;;;2.32;86.04
63819;BME280;49970;54.976;73.248;2023-03-25T04:21:00;100535.66;;;2.39;85.68
63819;BME280;49970;54.976;73.248;2023-03-25T04:23:27;100526.84;;;2.41;85.40
63819;BME280;49970;54.976;73.248;2023-03-25T04:25:56;100522.44;;;2.43;85.23
63819;BME280;49970;54.976;73.248;2023-03-25T04:28:27;100524.03;;;2.47;85.19
63819;BME280;49970;54.976;73.248;2023-03-25T04:30:58;100511.59;;;2.54;84.98
63819;BME280;49970;54.976;73.248;2023-03-25T04:33:25;100521.88;;;2.59;84.63
63819;BME280;49970;54.976;73.248;2023-03-25T04:35:54;100521.69;;;2.65;84.82
63819;BME280;49970;54.976;73.248;2023-03-25T04:38:20;100511.16;;;2.66;84.70
63819;BME280;49970;54.976;73.248;2023-03-25T04:40:47;100516.13;;;2.74;84.47
63819;BME280;49970;54.976;73.248;2023-03-25T04:43:14;100503.72;;;2.79;84.39
63819;BME280;49970;54.976;73.248;2023-03-25T04:45:42;100509.59;;;2.86;84.84
63819;BME280;49970;54.976;73.248;2023-03-25T04:48:25;100502.53;;;2.88;83.65
63819;BME280;49970;54.976;73.248;2023-03-25T04:50:59;100512.53;;;3.02;83.66
63819;BME280;49970;54.976;73.248;2023-03-25T04:53:27;100500.31;;;3.00;83.33
63819;BME280;49970;54.976;73.248;2023-03-25T04:55:54;100503.69;;;3.04;83.31
63819;BME280;49970;54.976;73.248;2023-03-25T04:58:20;100508.53;;;3.15;83.65
63819;BME280;49970;54.976;73.248;2023-03-25T05:00:50;100506.50;;;3.23;83.27
63819;BME280;49970;54.976;73.248;2023-03-25T05:03:17;100503.69;;;3.28;82.69
63819;BME280;49970;54.976;73.248;2023-03-25T05:05:52;100502.50;;;3.36;83.29
63819;BME280;49970;54.976;73.248;2023-03-25T05:08:19;100501.47;;;3.40;82.84
63819;BME280;49970;54.976;73.248;2023-03-25T05:10:48;100502.97;;;3.46;82.56
63819;BME280;49970;54.976;73.248;2023-03-25T05:13:15;100499.47;;;3.47;82.39
63819;BME280;49970;54.976;73.248;2023-03-25T05:15:41;100494.94;;;3.50;81.88
63819;BME280;49970;54.976;73.248;2023-03-25T05:18:12;100486.19;;;3.52;82.99
63819;BME280;49970;54.976;73.248;2023-03-25T05:20:41;100488.34;;;3.64;82.65
63819;BME280;49970;54.976;73.248;2023-03-25T05:23:09;100497.63;;;3.71;82.50
63819;BME280;49970;54.976;73.248;2023-03-25T05:25:40;100488.06;;;3.70;81.96
63819;BME280;49970;54.976;73.248;2023-03-25T05:28:18;100494.47;;;3.85;81.88
63819;BME280;49970;54.976;73.248;2023-03-25T05:30:55;100488.78;;;3.95;81.59
63819;BME280;49970;54.976;73.248;2023-03-25T05:33:21;100486.63;;;4.05;81.22
63819;BME280;49970;54.976;73.248;2023-03-25T05:35:47;100489.00;;;4.11;81.26
63819;BME280;49970;54.976;73.248;2023-03-25T05:38:15;100491.34;;;4.17;81.37
63819;BME280;49970;54.976;73.248;2023-03-25T05:40:47;100483.44;;;4.19;80.80
63819;BME280;49970;54.976;73.248;2023-03-25T05:43:14;100492.03;;;4.22;80.52
63819;BME280;49970;54.976;73.248;2023-03-25T05:45:41;100484.88;;;4.26;80.68
63819;BME280;49970;54.976;73.248;2023-03-25T05:48:07;100479.28;;;4.35;80.16
63819;BME280;49970;54.976;73.248;2023-03-25T05:50:36;100472.97;;;4.39;80.16
63819;BME280;49970;54.976;73.248;2023-03-25T05:53:03;100466.59;;;4.45;80.37
63819;BME280;49970;54.976;73.248;2023-03-25T05:55:29;100467.44;;;4.45;79.55
63819;BME280;49970;54.976;73.248;2023-03-25T05:57:56;100470.34;;;4.39;79.16
63819;BME280;49970;54.976;73.248;2023-03-25T06:00:23;100466.16;;;4.35;79.74
63819;BME280;49970;54.976;73.248;2023-03-25T06:02:55;100463.56;;;4.34;79.85
63819;BME280;49970;54.976;73.248;2023-03-25T06:05:24;100476.44;;;4.40;79.78
63819;BME280;49970;54.976;73.248;2023-03-25T06:07:51;100471.84;;;4.45;79.80
63819;BME280;49970;54.976;73.248;2023-03-25T06:10:21;100474.38;;;4.46;79.54
63819;BME280;49970;54.976;73.248;2023-03-25T06:12:48;100467.31;;;4.48;79.36
63819;BME280;49970;54.976;73.248;2023-03-25T06:15:17;100455.38;;;4.41;78.34
63819;BME280;49970;54.976;73.248;2023-03-25T06:17:46;100464.44;;;4.34;78.95
63819;BME280;49970;54.976;73.248;2023-03-25T06:20:13;100461.13;;;4.31;78.67
63819;BME280;49970;54.976;73.248;2023-03-25T06:22:44;100458.63;;;4.28;78.60
63819;BME280;49970;54.976;73.248;2023-03-25T06:25:13;100461.97;;;4.31;78.68
63819;BME280;49970;54.976;73.248;2023-03-25T06:27:42;100462.94;;;4.29;78.77
63819;BME280;49970;54.976;73.248;2023-03-25T06:30:11;100446.75;;;4.19;78.62
63819;BME280;49970;54.976;73.248;2023-03-25T06:32:39;100451.84;;;4.22;79.01
63819;BME280;49970;54.976;73.248;2023-03-25T06:35:07;100459.78;;;4.20;79.14
63819;BME280;49970;54.976;73.248;2023-03-25T06:37:34;100457.88;;;4.24;79.14
63819;BME280;49970;54.976;73.248;2023-03-25T06:40:06;100466.53;;;4.26;78.56
63819;BME280;49970;54.976;73.248;2023-03-25T06:42:34;100465.44;;;4.32;78.94
63819;BME280;49970;54.976;73.248;2023-03-25T06:45:20;100460.06;;;4.35;78.53
63819;BME280;49970;54.976;73.248;2023-03-25T06:48:04;100464.81;;;4.45;78.62
63819;BME280;49970;54.976;73.248;2023-03-25T06:50:31;100459.25;;;4.53;78.90
63819;BME280;49970;54.976;73.248;2023-03-25T06:52:57;100459.97;;;4.57;78.91
63819;BME280;49970;54.976;73.248;2023-03-25T06:55:24;100458.06;;;4.60;77.76
63819;BME280;49970;54.976;73.248;2023-03-25T06:57:54;100453.47;;;4.65;78.00
63819;BME280;49970;54.976;73.248;2023-03-25T07:00:21;100449.72;;;4.71;77.29
63819;BME280;49970;54.976;73.248;2023-03-25T07:02:49;100450.31;;;4.78;77.55
63819;BME280;49970;54.976;73.248;2023-03-25T07:05:16;100449.09;;;4.85;77.64
63819;BME280;49970;54.976;73.248;2023-03-25T07:07:48;100448.91;;;4.89;77.20
63819;BME280;49970;54.976;73.248;2023-03-25T07:10:15;100457.47;;;4.93;76.38
63819;BME280;49970;54.976;73.248;2023-03-25T07:12:41;100454.78;;;4.94;76.67
63819;BME280;49970;54.976;73.248;2023-03-25T07:15:07;100455.63;;;4.95;76.49
63819;BME280;49970;54.976;73.248;2023-03-25T07:17:36;100461.09;;;4.90;76.48
63819;BME280;49970;54.976;73.248;2023-03-25T07:20:04;100453.94;;;4.94;76.39
63819;BME280;49970;54.976;73.248;2023-03-25T07:22:31;100450.16;;;4.99;76.14
63819;BME280;49970;54.976;73.248;2023-03-25T07:24:57;100444.00;;;5.00;76.19
63819;BME280;49970;54.976;73.248;2023-03-25T07:27:24;100429.47;;;4.93;76.04
63819;BME280;49970;54.976;73.248;2023-03-25T07:30:00;100443.22;;;4.98;75.47
63819;BME280;49970;54.976;73.248;2023-03-25T07:32:26;100439.66;;;4.99;75.30
63819;BME280;49970;54.976;73.248;2023-03-25T07:34:53;100432.66;;;5.00;75.47
63819;BME280;49970;54.976;73.248;2023-03-25T07:37:19;100435.28;;;5.00;76.21
63819;BME280;49970;54.976;73.248;2023-03-25T07:39:46;100432.56;;;5.02;76.25
63819;BME280;49970;54.976;73.248;2023-03-25T07:42:12;100434.19;;;5.04;75.45
63819;BME280;49970;54.976;73.248;2023-03-25T07:44:58;100433.44;;;5.02;75.57
63819;BME280;49970;54.976;73.248;2023-03-25T07:47:25;100424.06;;;4.96;75.34
63819;BME280;49970;54.976;73.248;2023-03-25T07:49:51;100428.53;;;4.94;75.56
63819;BME280;49970;54.976;73.248;2023-03-25T07:52:17;100424.97;;;4.95;75.57
63819;BME280;49970;54.976;73.248;2023-03-25T07:54:43;100428.41;;;4.97;76.32
63819;BME280;49970;54.976;73.248;2023-03-25T07:57:10;100422.84;;;5.04;76.58
63819;BME280;49970;54.976;73.248;2023-03-25T07:59:36;100425.41;;;5.05;76.14
63819;BME280;49970;54.976;73.248;2023-03-25T08:02:02;100418.31;;;5.07;75.61
63819;BME280;49970;54.976;73.248;2023-03-25T08:04:29;100415.81;;;5.04;76.11
63819;BME280;49970;54.976;73.248;2023-03-25T08:07:02;100425.25;;;5.08;75.53
63819;BME280;49970;54.976;73.248;2023-03-25T08:09:29;100416.41;;;5.11;75.66
63819;BME280;49970;54.976;73.248;2023-03-25T08:11:55;100409.50;;;5.08;75.45
63819;BME280;49970;54.976;73.248;2023-03-25T08:14:21;100415.56;;;5.10;75.40
63819;BME280;49970;54.976;73.248;2023-03-25T08:16:48;100413.13;;;5.06;75.57
63819;BME280;49970;54.976;73.248;2023-03-25T08:19:14;100404.41;;;5.05;75.86
63819;BME280;49970;54.976;73.248;2023-03-25T08:21:40;100403.69;;;5.02;75.28
63819;BME280;49970;54.976;73.248;2023-03-25T08:24:11;100393.34;;;4.98;75.97
63819;BME280;49970;54.976;73.248;2023-03-25T08:26:38;100390.50;;;5.03;75.53
63819;BME280;49970;54.976;73.248;2023-03-25T08:29:04;100395.53;;;5.08;76.27
63819;BME280;49970;54.976;73.248;2023-03-25T08:31:52;100382.41;;;5.08;75.35
63819;BME280;49970;54.976;73.248;2023-03-25T08:39:32;100390.38;;;5.06;75.86
63819;BME280;49970;54.976;73.248;2023-03-25T08:43:48;100393.00;;;5.06;75.80
63819;BME280;49970;54.976;73.248;2023-03-25T08:47:39;100384.25;;;5.06;75.73
63819;BME280;49970;54.976;73.248;2023-03-25T08:55:19;100383.13;;;5.11;75.78
63819;BME280;49970;54.976;73.248;2023-03-25T09:03:24;100380.41;;;5.13;75.74
63819;BME280;49970;54.976;73.248;2023-03-25T09:07:15;100378.81;;;5.10;76.12
63819;BME280;49970;54.976;73.248;2023-03-25T09:11:06;100378.84;;;5.09;76.65
63819;BME280;49970;54.976;73.248;2023-03-25T09:22:35;100369.19;;;5.09;76.38
63819;BME280;49970;54.976;73.248;2023-03-25T09:26:51;100368.31;;;5.10;76.18
63819;BME280;49970;54.976;73.248;2023-03-25T09:30:42;100369.91;;;5.13;76.55
63819;BME280;49970;54.976;73.248;2023-03-25T09:38:22;100369.78;;;5.16;76.66
63819;BME280;49970;54.976;73.248;2023-03-25T09:46:20;100372.25;;;5.19;76.14
63819;BME280;49970;54.976;73.248;2023-03-25T09:50:11;100357.56;;;5.15;76.50
63819;BME280;49970;54.976;73.248;2023-03-25T09:54:03;100356.72;;;5.14;76.83
63819;BME280;49970;54.976;73.248;2023-03-25T09:57:35;100362.03;;;5.13;77.07
63819;BME280;49970;54.976;73.248;2023-03-25T10:12:22;100367.41;;;5.10;77.31
63819;BME280;49970;54.976;73.248;2023-03-25T10:16:13;100360.44;;;5.10;77.86
63819;BME280;49970;54.976;73.248;2023-03-25T10:30:47;100352.59;;;5.09;78.54
63819;BME280;49970;54.976;73.248;2023-03-25T10:40:08;100348.50;;;5.03;79.04
63819;BME280;49970;54.976;73.248;2023-03-25T10:43:50;100351.91;;;5.05;79.51
63819;BME280;49970;54.976;73.248;2023-03-25T10:48:10;100350.13;;;5.06;79.21
63819;BME280;49970;54.976;73.248;2023-03-25T10:51:57;100346.66;;;5.05;79.50
63819;BME280;49970;54.976;73.248;2023-03-25T11:00:01;100344.94;;;5.04;80.00
63819;BME280;49970;54.976;73.248;2023-03-25T11:03:49;100339.91;;;4.99;80.11
63819;BME280;49970;54.976;73.248;2023-03-25T11:07:57;100341.84;;;4.96;81.28
63819;BME280;49970;54.976;73.248;2023-03-25T11:57:44;100320.59;;;4.64;82.91
63819;BME280;49970;54.976;73.248;2023-03-25T12:00:38;100314.41;;;4.65;82.56
63819;BME280;49970;54.976;73.248;2023-03-25T12:03:17;100319.72;;;4.64;83.20
63819;BME280;49970;54.976;73.248;2023-03-25T12:08:22;100317.03;;;4.65;83.19
63819;BME280;49970;54.976;73.248;2023-03-25T12:11:04;100306.59;;;4.64;83.31
63819;BME280;49970;54.976;73.248;2023-03-25T12:13:50;100299.66;;;4.63;83.81
63819;BME280;49970;54.976;73.248;2023-03-25T12:19:18;100289.31;;;4.60;84.18
63819;BME280;49970;54.976;73.248;2023-03-25T12:24:58;100288.69;;;4.55;83.57
63819;BME280;49970;54.976;73.248;2023-03-25T12:33:17;100276.00;;;4.45;84.32
63819;BME280;49970;54.976;73.248;2023-03-25T12:45:18;100277.19;;;4.38;85.59
63819;BME280;49970;54.976;73.248;2023-03-25T12:48:24;100274.56;;;4.38;85.19
63819;BME280;49970;54.976;73.248;2023-03-25T12:51:11;100278.34;;;4.33;85.16
63819;BME280;49970;54.976;73.248;2023-03-25T12:53:57;100270.34;;;4.36;84.88
63819;BME280;49970;54.976;73.248;2023-03-25T13:05:26;100264.38;;;4.32;85.95
63819;BME280;49970;54.976;73.248;2023-03-25T13:08:42;100261.84;;;4.31;85.53
63819;BME280;49970;54.976;73.248;2023-03-25T13:10:42;100256.78;;;4.26;85.84
63819;BME280;49970;54.976;73.248;2023-03-25T13:13:20;100261.16;;;4.25;86.31
63819;BME280;49970;54.976;73.248;2023-03-25T13:18:32;100252.09;;;4.14;86.62
63819;BME280;49970;54.976;73.248;2023-03-25T13:21:18;100256.44;;;4.15;86.69
63819;BME280;49970;54.976;73.248;2023-03-25T13:23:51;100261.72;;;4.13;86.72
63819;BME280;49970;54.976;73.248;2023-03-25T13:26:28;100258.34;;;4.11;86.69
63819;BME280;49970;54.976;73.248;2023-03-25T13:31:31;100249.84;;;4.06;86.33
63819;BME280;49970;54.976;73.248;2023-03-25T13:40:26;100253.72;;;3.97;87.39
63819;BME280;49970;54.976;73.248;2023-03-25T13:43:19;100257.41;;;3.93;87.87
63819;BME280;49970;54.976;73.248;2023-03-25T13:46:07;100257.53;;;3.90;87.14
63819;BME280;49970;54.976;73.248;2023-03-25T13:51:27;100258.59;;;3.86;87.44
63819;BME280;49970;54.976;73.248;2023-03-25T13:54:18;100263.03;;;3.84;87.90
63819;BME280;49970;54.976;73.248;2023-03-25T14:03:06;100263.31;;;3.78;88.74
63819;BME280;49970;54.976;73.248;2023-03-25T14:12:04;100270.56;;;3.71;88.35
63819;BME280;49970;54.976;73.248;2023-03-25T14:15:05;100266.34;;;3.69;88.49
63819;BME280;49970;54.976;73.248;2023-03-25T14:17:40;100253.28;;;3.67;88.77
63819;BME280;49970;54.976;73.248;2023-03-25T14:20:08;100250.66;;;3.67;89.02
63819;BME280;49970;54.976;73.248;2023-03-25T14:22:39;100255.88;;;3.69;88.62
63819;BME280;49970;54.976;73.248;2023-03-25T14:27:59;100256.84;;;3.66;88.94
63819;BME280;49970;54.976;73.248;2023-03-25T14:30:34;100256.97;;;3.63;89.22
63819;BME280;49970;54.976;73.248;2023-03-25T14:33:08;100246.69;;;3.59;89.41
63819;BME280;49970;54.976;73.248;2023-03-25T14:48:36;100252.00;;;3.57;89.40
63819;BME280;49970;54.976;73.248;2023-03-25T14:51:33;100256.41;;;3.57;89.90
63819;BME280;49970;54.976;73.248;2023-03-25T14:54:28;100244.47;;;3.49;89.83
63819;BME280;49970;54.976;73.248;2023-03-25T14:57:09;100252.19;;;3.53;90.09
63819;BME280;49970;54.976;73.248;2023-03-25T14:59:43;100251.34;;;3.52;89.93
63819;BME280;49970;54.976;73.248;2023-03-25T15:02:31;100256.63;;;3.50;90.54
63819;BME280;49970;54.976;73.248;2023-03-25T15:05:12;100254.28;;;3.44;90.22
63819;BME280;49970;54.976;73.248;2023-03-25T15:10:37;100262.06;;;3.46;90.43
63819;BME280;49970;54.976;73.248;2023-03-25T15:13:18;100257.84;;;3.43;90.23
63819;BME280;49970;54.976;73.248;2023-03-25T15:23:34;100249.50;;;3.34;90.71
63819;BME280;49970;54.976;73.248;2023-03-25T15:26:10;100242.50;;;3.34;90.88
63819;BME280;49970;54.976;73.248;2023-03-25T15:34:33;100229.41;;;3.34;90.85
63819;BME280;49970;54.976;73.248;2023-03-25T15:40:30;100237.34;;;3.33;90.48
63819;BME280;49970;54.976;73.248;2023-03-25T15:43:39;100230.44;;;3.30;90.74
63819;BME280;49970;54.976;73.248;2023-03-25T15:46:31;100222.69;;;3.29;90.38
63819;BME280;49970;54.976;73.248;2023-03-25T15:49:31;100218.56;;;3.23;90.49
63819;BME280;49970;54.976;73.248;2023-03-25T15:52:25;100225.38;;;3.27;90.86
63819;BME280;49970;54.976;73.248;2023-03-25T15:55:18;100216.72;;;3.25;91.02
63819;BME280;49970;54.976;73.248;2023-03-25T15:58:02;100221.09;;;3.24;90.78
63819;BME280;49970;54.976;73.248;2023-03-25T16:00:40;100221.06;;;3.26;90.88
63819;BME280;49970;54.976;73.248;2023-03-25T16:03:15;100208.81;;;3.27;90.59
63819;BME280;49970;54.976;73.248;2023-03-25T16:05:48;100224.44;;;3.28;90.36
63819;BME280;49970;54.976;73.248;2023-03-25T16:08:21;100214.91;;;3.27;90.63
63819;BME280;49970;54.976;73.248;2023-03-25T16:10:50;100222.88;;;3.24;90.91
63819;BME280;49970;54.976;73.248;2023-03-25T16:13:17;100218.47;;;3.24;91.17
63819;BME280;49970;54.976;73.248;2023-03-25T16:15:53;100215.03;;;3.24;90.87
63819;BME280;49970;54.976;73.248;2023-03-25T16:18:21;100203.72;;;3.23;91.03
63819;BME280;49970;54.976;73.248;2023-03-25T16:20:58;100206.19;;;3.27;90.91
63819;BME280;49970;54.976;73.248;2023-03-25T16:23:26;100196.56;;;3.27;90.97
63819;BME280;49970;54.976;73.248;2023-03-25T16:25:53;100202.66;;;3.28;90.36
63819;BME280;49970;54.976;73.248;2023-03-25T16:30:52;100193.81;;;3.30;90.60
63819;BME280;49970;54.976;73.248;2023-03-25T16:33:25;100204.22;;;3.32;90.73
63819;BME280;49970;54.976;73.248;2023-03-25T16:36:00;100192.06;;;3.31;90.48
63819;BME280;49970;54.976;73.248;2023-03-25T16:38:29;100191.19;;;3.30;90.44
63819;BME280;49970;54.976;73.248;2023-03-25T16:41:05;100183.63;;;3.24;90.61
63819;BME280;49970;54.976;73.248;2023-03-25T16:43:32;100192.19;;;3.28;90.28
63819;BME280;49970;54.976;73.248;2023-03-25T16:46:01;100197.50;;;3.26;90.51
63819;BME280;49970;54.976;73.248;2023-03-25T16:48:35;100183.53;;;3.25;89.90
63819;BME280;49970;54.976;73.248;2023-03-25T16:51:12;100182.16;;;3.17;89.95
63819;BME280;49970;54.976;73.248;2023-03-25T16:53:39;100188.13;;;3.20;90.24
63819;BME280;49970;54.976;73.248;2023-03-25T16:59:19;100184.78;;;3.17;90.21
63819;BME280;49970;54.976;73.248;2023-03-25T17:01:59;100182.13;;;3.18;90.34
63819;BME280;49970;54.976;73.248;2023-03-25T17:04:36;100177.78;;;3.17;90.32
63819;BME280;49970;54.976;73.248;2023-03-25T17:07:13;100177.00;;;3.15;90.39
63819;BME280;49970;54.976;73.248;2023-03-25T17:09:49;100182.25;;;3.15;90.32
63819;BME280;49970;54.976;73.248;2023-03-25T17:12:19;100180.47;;;3.16;90.03
63819;BME280;49970;54.976;73.248;2023-03-25T17:14:48;100178.81;;;3.13;90.31
63819;BME280;49970;54.976;73.248;2023-03-25T17:17:41;100171.13;;;3.10;90.00
63819;BME280;49970;54.976;73.248;2023-03-25T17:20:16;100175.31;;;3.14;90.07
63819;BME280;49970;54.976;73.248;2023-03-25T17:22:57;100171.91;;;3.12;90.22
63819;BME280;49970;54.976;73.248;2023-03-25T17:25:27;100171.13;;;3.10;90.17
63819;BME280;49970;54.976;73.248;2023-03-25T17:28:21;100181.63;;;3.09;90.01
63819;BME280;49970;54.976;73.248;2023-03-25T17:30:47;100180.13;;;3.03;90.27
63819;BME280;49970;54.976;73.248;2023-03-25T17:33:32;100177.53;;;3.03;90.46
63819;BME280;49970;54.976;73.248;2023-03-25T17:36:02;100174.13;;;3.01;90.21
63819;BME280;49970;54.976;73.248;2023-03-25T17:38:44;100169.03;;;2.98;90.48
63819;BME280;49970;54.976;73.248;2023-03-25T17:41:14;100173.25;;;3.00;90.19
63819;BME280;49970;54.976;73.248;2023-03-25T17:43:45;100149.88;;;2.97;90.29
63819;BME280;49970;54.976;73.248;2023-03-25T17:46:16;100157.56;;;3.00;90.45
63819;BME280;49970;54.976;73.248;2023-03-25T17:48:43;100161.09;;;2.99;90.42
63819;BME280;49970;54.976;73.248;2023-03-25T17:51:11;100157.56;;;3.00;90.45
63819;BME280;49970;54.976;73.248;2023-03-25T17:53:38;100157.56;;;3.00;90.06
63819;BME280;49970;54.976;73.248;2023-03-25T17:56:04;100152.31;;;3.00;90.07
63819;BME280;49970;54.976;73.248;2023-03-25T17:58:31;100152.28;;;3.02;90.40
63819;BME280;49970;54.976;73.248;2023-03-25T18:01:10;100149.72;;;3.00;90.35
63819;BME280;49970;54.976;73.248;2023-03-25T18:03:47;100150.50;;;3.03;90.31